Time;durP1;ratioP1;P1;durP2;ratioP2;P2;SDS_P1;SDS_P2;PMS_P1;PMS_P2;Temp;Humidity;BMP_temperature;BMP_pressure;BME280_temperature;BME280_humidity;BME280_pressure;Samples;Min_cycle;Max_cycle;Signal;HPM_P1;HPM_P2
2023/01/03 00:00:35;;;;;;;;;;;;;;;15.00;59.20;97970.91;4213938;28;5708;-71
2023/01/03 00:02:38;;;;;;;;;;;;;;;15.00;59.33;97968.22;4212891;28;5696;-71
2023/01/03 00:04:40;;;;;;;;;;;;;;;15.00;59.18;97965.56;4219803;28;5736;-70
2023/01/03 00:06:52;;;;;;;;;;;;;;;15.02;59.17;97974.19;4201383;28;5726;-70
2023/01/03 00:08:58;;;;;;;;;;;;;;;15.03;59.53;97973.16;4202561;28;5093;-70
2023/01/03 00:11:01;;;;;;;;;;;;;;;15.04;59.40;97974.81;4202662;28;5748;-71
2023/01/03 00:13:03;;;;;;;;;;;;;;;15.04;59.30;97972.16;4202234;28;5656;-70
2023/01/03 00:15:06;;;;;;;;;;;;;;;15.07;59.16;97971.78;4202822;28;5643;-71
2023/01/03 00:17:10;;;;;;;;;;;;;;;15.06;59.48;97963.97;4202443;28;5644;-70
2023/01/03 00:19:14;;;;;;;;;;;;;;;15.02;59.32;97963.53;4217718;28;5687;-70
2023/01/03 00:21:17;;;;;;;;;;;;;;;15.03;59.69;97965.19;4216310;28;5623;-70
2023/01/03 00:23:20;;;;;;;;;;;;;;;15.03;59.44;97970.50;4214087;28;5632;-70
2023/01/03 00:25:24;;;;;;;;;;;;;;;15.06;59.72;97964.81;4201082;28;5628;-71
2023/01/03 00:27:27;;;;;;;;;;;;;;;15.07;59.51;97963.78;4207806;28;5901;-70
2023/01/03 00:29:30;;;;;;;;;;;;;;;15.09;59.46;97958.28;4218879;28;5625;-69
2023/01/03 00:31:33;;;;;;;;;;;;;;;15.06;59.61;97950.66;4217272;28;5694;-70
2023/01/03 00:33:36;;;;;;;;;;;;;;;15.05;59.65;97952.47;4203475;28;5616;-71
2023/01/03 00:35:38;;;;;;;;;;;;;;;15.03;59.56;97951.88;4191783;28;5906;-70
2023/01/03 00:37:41;;;;;;;;;;;;;;;15.04;59.70;97950.84;4194128;28;6830;-70
2023/01/03 00:39:44;;;;;;;;;;;;;;;15.05;59.81;97949.81;4202725;28;5648;-70
2023/01/03 00:41:48;;;;;;;;;;;;;;;15.05;59.84;97949.81;4196236;28;5786;-71
2023/01/03 00:43:50;;;;;;;;;;;;;;;15.05;59.85;97941.84;4191474;28;5635;-70
2023/01/03 00:45:52;;;;;;;;;;;;;;;15.05;59.74;97949.81;4190986;28;5698;-71
2023/01/03 00:47:55;;;;;;;;;;;;;;;14.95;60.13;97949.38;4194179;28;5721;-70
2023/01/03 00:49:58;;;;;;;;;;;;;;;14.84;60.33;97945.38;4195896;28;5616;-70
2023/01/03 00:52:01;;;;;;;;;;;;;;;14.74;60.69;97942.22;4185205;28;5770;-70
2023/01/03 00:54:05;;;;;;;;;;;;;;;14.69;60.57;97949.13;4191827;28;5659;-70
2023/01/03 00:56:10;;;;;;;;;;;;;;;14.70;60.84;97953.41;4191546;28;5729;-70
2023/01/03 00:58:15;;;;;;;;;;;;;;;14.74;60.63;97957.38;4195826;28;5643;-70
2023/01/03 01:00:17;;;;;;;;;;;;;;;14.77;60.57;97956.97;4195663;28;6405;-70
2023/01/03 01:02:22;;;;;;;;;;;;;;;14.82;60.59;97951.88;4212116;28;5703;-70
2023/01/03 01:04:27;;;;;;;;;;;;;;;14.84;60.60;97956.03;4214639;28;5726;-70
2023/01/03 01:06:32;;;;;;;;;;;;;;;14.88;60.55;97960.97;4217291;28;5612;-70
2023/01/03 01:08:35;;;;;;;;;;;;;;;14.90;60.26;97959.75;4207450;28;5610;-70
2023/01/03 01:11:00;;;;;;;;;;;;;;;14.93;60.55;97959.34;4203328;28;5706;-70
2023/01/03 01:13:03;;;;;;;;;;;;;;;14.94;60.50;97953.00;4195026;28;5627;-70
2023/01/03 01:15:08;;;;;;;;;;;;;;;14.95;60.58;97956.50;4218520;28;5640;-70
2023/01/03 01:17:11;;;;;;;;;;;;;;;14.96;60.58;97956.34;4218648;28;5620;-69
2023/01/03 01:19:14;;;;;;;;;;;;;;;14.97;60.58;97960.63;4212357;28;5636;-70
2023/01/03 01:21:19;;;;;;;;;;;;;;;14.99;60.59;97965.78;4203998;28;5719;-70
2023/01/03 01:23:21;;;;;;;;;;;;;;;14.99;60.19;97971.91;4206528;28;5623;-70
2023/01/03 01:25:24;;;;;;;;;;;;;;;14.96;60.36;97963.50;4210049;28;5627;-70
2023/01/03 01:27:27;;;;;;;;;;;;;;;14.90;60.58;97962.41;4206200;28;5630;-70
2023/01/03 01:29:30;;;;;;;;;;;;;;;14.88;60.52;97964.44;4218201;28;5616;-70
2023/01/03 01:31:34;;;;;;;;;;;;;;;14.91;60.68;97968.56;4212504;28;5719;-70
2023/01/03 01:33:37;;;;;;;;;;;;;;;14.92;60.70;97965.69;4207357;28;5621;-70
2023/01/03 01:35:40;;;;;;;;;;;;;;;14.93;60.61;97966.53;4218387;28;5616;-70
2023/01/03 01:37:43;;;;;;;;;;;;;;;14.93;60.73;97974.50;4211523;28;5635;-71
2023/01/03 01:39:45;;;;;;;;;;;;;;;14.90;60.80;97973.06;4209627;28;5639;-70
2023/01/03 01:44:47;;;;;;;;;;;;;;;14.87;60.82;97975.28;4207026;28;5140;-70
2023/01/03 01:46:52;;;;;;;;;;;;;;;14.84;60.75;97980.00;4218058;28;5621;-70
2023/01/03 01:49:06;;;;;;;;;;;;;;;14.86;61.01;97977.13;4218167;28;5649;-70
2023/01/03 01:51:11;;;;;;;;;;;;;;;14.85;60.76;97980.81;4208077;28;5817;-70
2023/01/03 01:53:17;;;;;;;;;;;;;;;14.81;60.97;97982.19;4205061;28;5738;-70
2023/01/03 01:55:24;;;;;;;;;;;;;;;14.79;61.24;97976.25;4202688;28;6298;-70
2023/01/03 01:57:27;;;;;;;;;;;;;;;14.77;61.31;97984.41;4213728;28;5724;-70
2023/01/03 01:59:30;;;;;;;;;;;;;;;14.80;60.98;97985.88;4210319;28;5684;-70
2023/01/03 02:01:34;;;;;;;;;;;;;;;14.85;61.03;97989.63;4209243;28;5724;-70
2023/01/03 02:03:41;;;;;;;;;;;;;;;14.87;61.16;97999.25;4209073;28;5719;-70
2023/01/03 02:05:48;;;;;;;;;;;;;;;14.82;61.00;97994.47;4211161;28;5734;-70
2023/01/03 02:07:52;;;;;;;;;;;;;;;14.80;61.31;97999.19;4214634;28;5703;-70
2023/01/03 02:09:57;;;;;;;;;;;;;;;14.76;61.46;98004.06;4194878;28;6289;-70
2023/01/03 02:14:39;;;;;;;;;;;;;;;14.76;61.19;97984.63;4204556;28;5818;-70
2023/01/03 02:16:54;;;;;;;;;;;;;;;14.74;61.53;97987.47;4210948;28;5683;-70
2023/01/03 02:19:07;;;;;;;;;;;;;;;14.73;61.68;97980.50;4209255;28;5601;-70
2023/01/03 02:21:45;;;;;;;;;;;;;;;14.72;61.71;97989.50;4216990;28;5605;-70
2023/01/03 02:24:18;;;;;;;;;;;;;;;14.73;61.70;97983.16;4197552;28;5641;-70
2023/01/03 02:26:45;;;;;;;;;;;;;;;14.72;61.63;97983.31;4210328;28;5708;-70
2023/01/03 02:29:17;;;;;;;;;;;;;;;14.71;61.49;97981.69;4191079;28;5739;-70
2023/01/03 02:31:27;;;;;;;;;;;;;;;14.70;61.71;97974.72;4195474;28;5627;-70
2023/01/03 02:33:37;;;;;;;;;;;;;;;14.70;61.83;97975.53;4200251;28;5643;-70
2023/01/03 02:35:48;;;;;;;;;;;;;;;14.70;61.97;97980.03;4200567;28;5641;-70
2023/01/03 02:37:58;;;;;;;;;;;;;;;14.69;61.63;97976.56;4208306;28;5617;-69
2023/01/03 02:40:09;;;;;;;;;;;;;;;14.67;61.91;97975.09;4197772;28;5759;-70
2023/01/03 02:44:40;;;;;;;;;;;;;;;14.65;61.90;97975.28;4214554;28;5611;-70
2023/01/03 02:46:49;;;;;;;;;;;;;;;14.64;61.82;97973.66;4218399;28;5839;-70
2023/01/03 02:48:55;;;;;;;;;;;;;;;14.63;62.08;97968.53;4202832;28;5613;-70
2023/01/03 02:51:02;;;;;;;;;;;;;;;14.62;62.07;97965.03;4219848;28;5605;-70
2023/01/03 02:53:09;;;;;;;;;;;;;;;14.63;61.93;97976.50;4212215;28;5625;-70
2023/01/03 02:55:17;;;;;;;;;;;;;;;14.64;61.95;97978.97;4203259;28;5729;-70
2023/01/03 02:57:23;;;;;;;;;;;;;;;14.64;62.02;97978.16;4196841;28;5628;-70
2023/01/03 02:59:33;;;;;;;;;;;;;;;14.69;62.07;97973.88;4212886;28;5632;-70
2023/01/03 03:01:41;;;;;;;;;;;;;;;14.70;61.96;97969.38;4212111;28;5640;-70
2023/01/03 03:03:47;;;;;;;;;;;;;;;14.67;62.21;97975.09;4210207;28;5778;-70
2023/01/03 03:05:56;;;;;;;;;;;;;;;14.65;62.02;97971.81;4203550;28;5611;-70
2023/01/03 03:07:59;;;;;;;;;;;;;;;14.65;62.17;97966.50;4196153;28;5639;-70
2023/01/03 03:14:47;;;;;;;;;;;;;;;14.66;62.26;97974.28;4197432;28;5551;-70
2023/01/03 11:53:04;;;;;;;;;;;;;;;12.55;74.16;98171.06;4243755;27;10262;-69
2023/01/03 11:55:27;;;;;;;;;;;;;;;12.90;73.37;98168.91;4238731;27;5099;-69
2023/01/03 11:57:39;;;;;;;;;;;;;;;13.11;72.95;98169.13;4246097;27;5733;-69
2023/01/03 12:00:02;;;;;;;;;;;;;;;13.33;72.47;98168.34;4247195;27;5661;-69
2023/01/03 12:02:34;;;;;;;;;;;;;;;13.50;72.04;98160.25;4246421;27;5634;-69
2023/01/03 12:04:52;;;;;;;;;;;;;;;13.59;71.60;98162.69;4244989;27;5642;-70
2023/01/03 12:07:08;;;;;;;;;;;;;;;13.62;71.75;98158.81;4240783;27;5781;-69
2023/01/03 12:09:40;;;;;;;;;;;;;;;13.66;71.32;98157.44;4243908;27;5639;-69
2023/01/03 12:12:07;;;;;;;;;;;;;;;13.72;71.30;98159.41;4240942;27;5751;-70
2023/01/03 12:14:17;;;;;;;;;;;;;;;13.75;71.34;98161.69;4242326;27;5649;-69
2023/01/03 12:16:25;;;;;;;;;;;;;;;13.78;71.25;98153.34;4247572;27;5662;-69
2023/01/03 12:18:37;;;;;;;;;;;;;;;13.79;71.20;98160.31;4239413;27;5740;-69
2023/01/03 12:20:47;;;;;;;;;;;;;;;13.80;70.90;98155.81;4240591;27;5822;-69
2023/01/03 12:22:56;;;;;;;;;;;;;;;13.81;70.78;98158.31;4230656;28;5680;-69
2023/01/03 12:25:08;;;;;;;;;;;;;;;13.82;70.68;98154.66;4239190;27;5799;-69
2023/01/03 12:27:16;;;;;;;;;;;;;;;13.83;70.75;98151.00;4247457;27;5655;-68
2023/01/03 12:29:21;;;;;;;;;;;;;;;13.86;70.36;98155.94;4243747;27;6226;-69
2023/01/03 12:31:31;;;;;;;;;;;;;;;13.88;70.33;98156.59;4239135;27;5654;-69
2023/01/03 12:33:41;;;;;;;;;;;;;;;13.88;70.18;98151.28;4238677;27;5646;-69
2023/01/03 12:35:50;;;;;;;;;;;;;;;13.90;70.15;98156.41;4247249;27;5728;-69
2023/01/03 12:37:54;;;;;;;;;;;;;;;13.91;70.11;98153.56;4244498;27;5736;-69
2023/01/03 12:40:03;;;;;;;;;;;;;;;13.93;69.91;98158.69;4247040;27;5836;-69
2023/01/03 12:42:17;;;;;;;;;;;;;;;13.95;69.75;98146.06;4247751;27;5670;-69
2023/01/03 12:44:25;;;;;;;;;;;;;;;13.98;69.67;98149.19;4232404;27;5755;-69
2023/01/03 12:46:33;;;;;;;;;;;;;;;13.99;69.49;98142.03;4241836;27;5646;-69
2023/01/03 12:48:50;;;;;;;;;;;;;;;14.01;69.28;98147.16;4247552;27;5869;-69
2023/01/03 12:50:54;;;;;;;;;;;;;;;14.07;69.10;98141.13;4247483;27;5861;-69
2023/01/03 12:53:01;;;;;;;;;;;;;;;14.08;69.27;98148.09;4238734;27;5741;-69
2023/01/03 12:55:18;;;;;;;;;;;;;;;14.09;69.08;98147.91;4235784;27;5649;-69
2023/01/03 12:57:46;;;;;;;;;;;;;;;14.11;68.71;98145.88;4233990;27;5793;-69
2023/01/03 13:00:07;;;;;;;;;;;;;;;14.07;68.89;98149.09;4234379;28;5665;-69
2023/01/03 13:02:21;;;;;;;;;;;;;;;14.03;68.70;98139.81;4229019;28;5740;-69
2023/01/03 13:04:31;;;;;;;;;;;;;;;14.01;68.82;98139.19;4234829;27;5891;-69
2023/01/03 13:06:39;;;;;;;;;;;;;;;14.01;68.51;98140.00;4234976;28;5667;-69
2023/01/03 13:08:47;;;;;;;;;;;;;;;14.04;68.47;98141.47;4234829;28;5650;-69
2023/01/03 13:10:56;;;;;;;;;;;;;;;14.00;68.27;98143.69;4234593;28;5757;-69
2023/01/03 13:13:01;;;;;;;;;;;;;;;13.99;68.60;98134.88;4234645;28;5705;-69
2023/01/03 13:15:14;;;;;;;;;;;;;;;14.02;68.41;98136.34;4235459;27;5785;-69
2023/01/03 13:17:19;;;;;;;;;;;;;;;14.02;68.43;98140.84;4235001;27;5642;-69
2023/01/03 13:19:51;;;;;;;;;;;;;;;14.01;68.30;98136.53;4221815;27;5097;-69
2023/01/03 13:22:03;;;;;;;;;;;;;;;13.98;68.21;98138.53;4218685;28;5667;-69
2023/01/03 13:24:07;;;;;;;;;;;;;;;13.98;68.16;98129.75;4222873;28;5136;-69
2023/01/03 13:26:20;;;;;;;;;;;;;;;13.99;68.04;98132.22;4230313;28;5833;-69
2023/01/03 13:28:31;;;;;;;;;;;;;;;14.03;67.78;98138.00;4234874;27;5809;-69
2023/01/03 13:30:37;;;;;;;;;;;;;;;14.03;67.87;98142.47;4218768;28;5758;-69
2023/01/03 13:32:49;;;;;;;;;;;;;;;14.04;67.81;98129.00;4219576;28;5746;-69
2023/01/03 13:35:20;;;;;;;;;;;;;;;14.06;67.57;98139.47;4227669;28;5758;-69
2023/01/03 13:37:24;;;;;;;;;;;;;;;14.08;67.38;98140.13;4221837;28;5744;-70
2023/01/03 13:39:35;;;;;;;;;;;;;;;14.05;67.26;98136.00;4233938;27;5765;-71
2023/01/03 13:41:40;;;;;;;;;;;;;;;14.02;67.66;98133.69;4234429;28;5737;-70
2023/01/03 13:43:46;;;;;;;;;;;;;;;14.06;67.38;98131.50;4231329;28;5751;-70
2023/01/03 13:45:56;;;;;;;;;;;;;;;14.07;67.41;98128.66;4224467;28;5682;-70
2023/01/03 13:48:10;;;;;;;;;;;;;;;14.04;67.20;98133.50;4227321;28;5682;-70
2023/01/03 13:50:20;;;;;;;;;;;;;;;14.02;67.04;98138.19;4225286;28;5663;-70
2023/01/03 13:52:36;;;;;;;;;;;;;;;13.99;67.40;98137.53;4229819;28;5901;-70
2023/01/03 13:55:07;;;;;;;;;;;;;;;13.99;67.15;98137.53;4232719;28;5642;-70
2023/01/03 13:57:36;;;;;;;;;;;;;;;14.01;66.94;98133.88;4229213;28;5781;-70
2023/01/03 13:59:43;;;;;;;;;;;;;;;14.02;67.04;98136.34;4232539;28;5737;-70
2023/01/03 14:02:14;;;;;;;;;;;;;;;13.97;66.89;98131.56;4234577;28;5662;-70
2023/01/03 14:04:51;;;;;;;;;;;;;;;13.98;66.78;98135.88;4230601;27;5802;-70
2023/01/03 14:07:10;;;;;;;;;;;;;;;13.99;66.96;98134.06;4221134;28;5823;-70
2023/01/03 14:09:47;;;;;;;;;;;;;;;13.99;66.64;98129.56;4219347;28;5746;-70
2023/01/03 14:12:12;;;;;;;;;;;;;;;14.01;66.72;98136.53;4233592;28;5828;-70
2023/01/03 14:14:21;;;;;;;;;;;;;;;14.04;66.42;98138.81;4220928;28;5788;-70
2023/01/03 14:16:27;;;;;;;;;;;;;;;14.04;66.46;98133.50;4223305;28;5696;-70
2023/01/03 14:18:30;;;;;;;;;;;;;;;14.06;66.43;98142.13;4217636;28;6431;-70
2023/01/03 14:20:36;;;;;;;;;;;;;;;14.06;66.52;98147.47;4231975;28;5658;-70
2023/01/03 14:22:42;;;;;;;;;;;;;;;14.04;66.35;98146.78;4228142;28;5672;-70
2023/01/03 14:24:48;;;;;;;;;;;;;;;13.99;66.42;98142.84;4229288;28;5761;-70
2023/01/03 14:26:51;;;;;;;;;;;;;;;13.98;66.53;98145.69;4221201;28;5676;-70
2023/01/03 14:28:55;;;;;;;;;;;;;;;13.96;66.31;98142.41;4217669;28;5770;-70
2023/01/03 14:31:04;;;;;;;;;;;;;;;13.97;66.24;98150.19;4225015;28;5650;-70
2023/01/03 14:33:16;;;;;;;;;;;;;;;13.93;66.47;98148.91;4225267;28;5671;-70
2023/01/03 14:35:36;;;;;;;;;;;;;;;13.93;66.29;98162.22;4217896;28;6753;-70
2023/01/03 14:37:46;;;;;;;;;;;;;;;13.93;66.19;98156.88;4217267;28;5754;-70
2023/01/03 14:39:53;;;;;;;;;;;;;;;13.94;66.20;98169.16;4224524;28;5733;-70
2023/01/03 14:41:56;;;;;;;;;;;;;;;13.94;66.21;98166.50;4233327;28;5733;-70
2023/01/03 14:44:00;;;;;;;;;;;;;;;13.94;66.27;98163.03;4230846;28;5741;-70
2023/01/03 14:46:07;;;;;;;;;;;;;;;13.94;66.13;98166.50;4233904;27;5662;-70
2023/01/03 14:48:17;;;;;;;;;;;;;;;13.96;65.92;98158.34;4230358;27;6372;-70
2023/01/03 14:50:25;;;;;;;;;;;;;;;13.98;65.81;98159.00;4228700;28;5770;-70
2023/01/03 14:52:30;;;;;;;;;;;;;;;13.99;65.72;98163.31;4217649;28;5677;-70
2023/01/03 14:54:34;;;;;;;;;;;;;;;13.97;66.08;98168.81;4227413;28;5877;-70
2023/01/03 14:56:37;;;;;;;;;;;;;;;13.95;65.84;98168.16;4231047;28;5755;-70
2023/01/03 14:58:45;;;;;;;;;;;;;;;13.98;65.87;98161.66;4227113;28;5758;-70
2023/01/03 15:00:50;;;;;;;;;;;;;;;13.98;65.71;98173.09;4232790;28;6313;-70
2023/01/03 15:02:55;;;;;;;;;;;;;;;13.97;65.63;98173.28;4217104;28;5763;-70
2023/01/03 15:05:01;;;;;;;;;;;;;;;13.98;65.73;98167.78;4225711;28;5733;-70
2023/01/03 15:07:05;;;;;;;;;;;;;;;13.96;65.79;98171.66;4230469;28;5654;-70
2023/01/03 15:09:21;;;;;;;;;;;;;;;13.96;65.76;98164.50;4233192;28;5749;-70
2023/01/03 15:11:29;;;;;;;;;;;;;;;13.99;65.65;98168.63;4232473;28;6240;-70
2023/01/03 15:13:35;;;;;;;;;;;;;;;14.02;65.69;98170.91;4232645;27;5639;-70
2023/01/03 15:15:39;;;;;;;;;;;;;;;14.07;65.47;98170.38;4228110;28;5842;-70
2023/01/03 15:17:44;;;;;;;;;;;;;;;14.07;65.58;98175.69;4232739;27;5639;-70
2023/01/03 15:19:53;;;;;;;;;;;;;;;14.07;65.34;98173.88;4225449;28;5744;-69
2023/01/03 15:22:07;;;;;;;;;;;;;;;14.08;65.40;98169.38;4224371;28;5662;-70
2023/01/03 15:24:14;;;;;;;;;;;;;;;14.07;65.34;98175.69;4232749;28;5809;-70
2023/01/03 15:26:24;;;;;;;;;;;;;;;14.06;65.23;98185.50;4230780;28;5765;-70
2023/01/03 15:28:30;;;;;;;;;;;;;;;14.05;65.42;98185.69;4228527;28;5642;-70
2023/01/03 15:30:46;;;;;;;;;;;;;;;14.06;65.08;98188.16;4225584;28;5741;-70
2023/01/03 15:32:53;;;;;;;;;;;;;;;14.07;65.05;98181.00;4233473;28;5816;-70
2023/01/03 15:34:57;;;;;;;;;;;;;;;14.02;65.30;98178.06;4228145;28;5800;-70
2023/01/03 15:37:02;;;;;;;;;;;;;;;14.01;65.15;98179.06;4230958;28;5646;-70
2023/01/03 15:39:08;;;;;;;;;;;;;;;14.01;65.29;98181.72;4232535;28;5729;-71
2023/01/03 15:43:18;;;;;;;;;;;;;;;14.02;65.01;98181.53;4229850;28;5752;-70
2023/01/03 15:43:42;;;;;;;;;;;;;;;14.00;64.92;98175.59;4230345;28;5634;-70
2023/01/03 15:45:51;;;;;;;;;;;;;;;13.98;65.08;98175.78;4227183;28;6477;-70
2023/01/03 15:47:57;;;;;;;;;;;;;;;13.96;65.01;98179.63;4232937;28;5768;-70
2023/01/03 15:50:03;;;;;;;;;;;;;;;13.91;65.34;98185.47;4231881;28;5741;-70
2023/01/03 15:52:06;;;;;;;;;;;;;;;13.92;65.16;98179.13;4225775;28;5877;-70
2023/01/03 15:54:11;;;;;;;;;;;;;;;13.90;65.23;98181.16;4232401;28;6410;-70
2023/01/03 15:56:18;;;;;;;;;;;;;;;13.89;65.15;98186.66;4231879;28;5465;-70
2023/01/03 15:58:21;;;;;;;;;;;;;;;13.86;65.14;98179.88;4229026;28;7753;-70
2023/01/03 16:00:25;;;;;;;;;;;;;;;13.83;65.36;98188.22;4228323;28;5764;-70
2023/01/03 16:02:29;;;;;;;;;;;;;;;13.81;65.34;98192.03;4232876;27;6187;-70
2023/01/03 16:04:39;;;;;;;;;;;;;;;13.79;65.40;98194.88;4224059;28;5733;-70
2023/01/03 16:06:43;;;;;;;;;;;;;;;13.77;65.34;98201.38;4229688;27;5865;-70
2023/01/03 16:08:46;;;;;;;;;;;;;;;13.74;65.39;98199.91;4231928;28;5099;-70
2023/01/03 16:10:50;;;;;;;;;;;;;;;13.73;65.44;98197.44;4225458;28;5659;-70
2023/01/03 16:12:52;;;;;;;;;;;;;;;13.72;65.48;98195.78;4231817;28;5654;-70
2023/01/03 16:14:55;;;;;;;;;;;;;;;13.69;65.54;98197.78;4230953;27;5737;-70
2023/01/03 16:16:58;;;;;;;;;;;;;;;13.68;65.58;98203.28;4231406;27;6799;-70
2023/01/03 16:19:03;;;;;;;;;;;;;;;13.68;65.39;98206.75;4226534;28;5111;-70
2023/01/03 16:21:06;;;;;;;;;;;;;;;13.68;65.18;98200.63;4231460;28;5824;-70
2023/01/03 16:23:22;;;;;;;;;;;;;;;13.67;65.37;98201.63;4232613;28;7670;-70
2023/01/03 16:25:25;;;;;;;;;;;;;;;13.66;65.42;98199.97;4231461;28;5894;-70
2023/01/03 16:27:27;;;;;;;;;;;;;;;13.65;65.21;98203.63;4232125;28;5832;-69
2023/01/03 16:29:30;;;;;;;;;;;;;;;13.66;65.25;98202.63;4225067;27;5657;-70
2023/01/03 16:31:35;;;;;;;;;;;;;;;13.65;65.18;98203.63;4223725;28;5684;-70
2023/01/03 16:33:38;;;;;;;;;;;;;;;13.66;65.40;98199.97;4234523;28;5669;-70
2023/01/03 16:35:40;;;;;;;;;;;;;;;13.65;65.38;98206.28;4232861;27;5642;-70
2023/01/03 16:37:43;;;;;;;;;;;;;;;13.65;65.45;98195.66;4233667;28;6470;-70
2023/01/03 16:39:47;;;;;;;;;;;;;;;13.68;65.37;98196.13;4218786;28;5856;-70
2023/01/03 16:44:12;;;;;;;;;;;;;;;13.66;65.06;98190.16;4230558;28;5100;-70
2023/01/03 16:46:18;;;;;;;;;;;;;;;13.66;65.18;98194.66;4218237;28;8308;-70
2023/01/03 16:48:24;;;;;;;;;;;;;;;13.66;65.13;98206.09;4232976;28;5656;-70
2023/01/03 16:50:27;;;;;;;;;;;;;;;13.67;65.02;98193.66;4230985;28;5910;-69
2023/01/03 16:52:33;;;;;;;;;;;;;;;13.66;64.91;98198.13;4226588;28;5701;-70
2023/01/03 16:54:36;;;;;;;;;;;;;;;13.66;64.91;98199.97;4234918;28;5800;-70
2023/01/03 16:56:40;;;;;;;;;;;;;;;13.66;65.16;98199.97;4226692;28;5818;-70
2023/01/03 16:58:43;;;;;;;;;;;;;;;13.64;64.96;98202.00;4226578;27;5731;-70
2023/01/03 17:00:46;;;;;;;;;;;;;;;13.65;65.11;98203.63;4226433;28;5741;-70
2023/01/03 17:02:49;;;;;;;;;;;;;;;13.64;65.15;98202.81;4234427;27;5741;-70
2023/01/03 17:04:52;;;;;;;;;;;;;;;13.64;65.21;98208.13;4225950;28;5641;-70
2023/01/03 17:06:56;;;;;;;;;;;;;;;13.64;65.21;98207.31;4235350;28;5748;-70
2023/01/03 17:09:01;;;;;;;;;;;;;;;13.63;65.11;98200.34;4227043;28;5653;-70
2023/01/03 17:11:06;;;;;;;;;;;;;;;13.62;64.79;98204.81;4226318;27;5753;-70
2023/01/03 17:13:29;;;;;;;;;;;;;;;13.62;65.22;98206.66;4233181;28;5800;-70
2023/01/03 17:15:32;;;;;;;;;;;;;;;13.61;65.06;98210.31;4226403;28;5758;-70
2023/01/03 17:17:35;;;;;;;;;;;;;;;13.59;64.79;98220.28;4231941;28;5843;-70
2023/01/03 17:19:37;;;;;;;;;;;;;;;13.59;64.76;98223.78;4229780;28;5731;-70
2023/01/03 17:22:00;;;;;;;;;;;;;;;13.61;64.75;98216.47;4226129;28;5810;-70
2023/01/03 17:24:07;;;;;;;;;;;;;;;13.62;64.77;98227.91;4233331;28;5447;-71
2023/01/03 17:26:14;;;;;;;;;;;;;;;13.62;64.62;98219.94;4221589;28;7779;-71
2023/01/03 17:28:18;;;;;;;;;;;;;;;13.66;64.63;98222.06;4225683;28;5756;-70
2023/01/03 17:30:23;;;;;;;;;;;;;;;13.68;64.80;98227.19;4230801;28;5800;-70
2023/01/03 17:32:27;;;;;;;;;;;;;;;13.66;64.65;98226.53;4226238;28;5745;-71
2023/01/03 17:34:31;;;;;;;;;;;;;;;13.64;64.76;98220.59;4231527;28;5650;-70
2023/01/03 17:36:34;;;;;;;;;;;;;;;13.62;64.63;98220.78;4223806;28;5736;-70
2023/01/03 17:38:37;;;;;;;;;;;;;;;13.62;64.82;98225.25;4225455;28;5744;-70
2023/01/03 17:40:42;;;;;;;;;;;;;;;13.60;64.92;98219.31;4234258;27;5642;-71
2023/01/03 17:42:50;;;;;;;;;;;;;;;13.60;64.61;98221.97;4230630;28;5868;-70
2023/01/03 17:49:42;;;;;;;;;;;;;;;13.56;64.75;98223.28;4227585;28;6385;-71
2023/01/03 17:51:45;;;;;;;;;;;;;;;13.56;64.99;98217.97;4223983;28;6937;-71
2023/01/03 17:53:49;;;;;;;;;;;;;;;13.56;64.76;98215.31;4233865;28;5670;-71
2023/01/03 17:55:52;;;;;;;;;;;;;;;13.56;64.85;98220.63;4227829;28;5746;-69
2023/01/03 17:57:56;;;;;;;;;;;;;;;13.56;64.92;98218.81;4231145;27;5829;-71
2023/01/03 18:00:00;;;;;;;;;;;;;;;13.58;64.75;98218.63;4224214;28;5753;-70
2023/01/03 18:02:05;;;;;;;;;;;;;;;13.62;64.62;98223.44;4217997;28;5902;-70
2023/01/03 18:04:08;;;;;;;;;;;;;;;13.68;64.67;98230.66;4219133;28;5765;-71
2023/01/03 18:06:16;;;;;;;;;;;;;;;13.75;64.61;98219.34;4227214;28;5713;-70
2023/01/03 18:08:23;;;;;;;;;;;;;;;13.78;64.52;98225.13;4234304;28;5103;-71
2023/01/03 18:10:31;;;;;;;;;;;;;;;13.73;64.25;98222.19;4225453;27;5321;-71
2023/01/03 18:12:34;;;;;;;;;;;;;;;13.72;64.38;98225.03;4218301;28;7718;-69
2023/01/03 18:14:37;;;;;;;;;;;;;;;13.75;64.73;98214.84;4222058;28;5837;-69
2023/01/03 18:16:42;;;;;;;;;;;;;;;13.76;64.61;98211.19;4229904;28;5785;-71
2023/01/03 18:18:45;;;;;;;;;;;;;;;13.75;64.70;98212.19;4234004;28;6454;-69
2023/01/03 18:20:48;;;;;;;;;;;;;;;13.75;64.47;98206.88;4232272;28;6547;-68
2023/01/03 18:22:51;;;;;;;;;;;;;;;13.80;64.51;98206.34;4230522;28;6205;-70
2023/01/03 18:24:55;;;;;;;;;;;;;;;13.81;64.61;98205.31;4225375;28;5709;-70
2023/01/03 18:26:57;;;;;;;;;;;;;;;13.79;64.38;98215.31;4220959;28;5778;-69
2023/01/03 18:29:00;;;;;;;;;;;;;;;13.78;64.51;98211.00;4222904;28;5754;-69
2023/01/03 18:31:04;;;;;;;;;;;;;;;13.79;64.50;98215.31;4224060;28;6433;-70
2023/01/03 18:33:09;;;;;;;;;;;;;;;13.81;64.75;98226.59;4225872;28;5707;-70
2023/01/03 18:35:14;;;;;;;;;;;;;;;13.81;64.68;98215.97;4219087;28;5795;-70
2023/01/03 18:37:24;;;;;;;;;;;;;;;13.82;64.50;98213.16;4233795;27;5740;-70
2023/01/03 18:39:28;;;;;;;;;;;;;;;13.82;64.43;98213.16;4233782;28;5729;-70
2023/01/03 18:41:33;;;;;;;;;;;;;;;13.83;64.53;98212.13;4231595;28;5686;-70
2023/01/03 18:43:36;;;;;;;;;;;;;;;13.83;64.69;98222.78;4233057;27;7691;-70
2023/01/03 18:45:41;;;;;;;;;;;;;;;13.84;64.67;98223.59;4222625;28;5762;-70
2023/01/03 18:47:43;;;;;;;;;;;;;;;13.85;64.53;98215.44;4233830;28;5741;-70
2023/01/03 18:49:47;;;;;;;;;;;;;;;13.86;64.38;98222.41;4233965;28;5658;-71
2023/01/03 18:51:53;;;;;;;;;;;;;;;13.88;64.56;98220.38;4228671;27;5631;-71
2023/01/03 18:53:58;;;;;;;;;;;;;;;13.86;64.38;98214.44;4233714;27;5653;-71
2023/01/03 18:56:01;;;;;;;;;;;;;;;13.86;64.60;98219.75;4233664;28;6896;-70
2023/01/03 18:58:13;;;;;;;;;;;;;;;13.86;64.49;98214.44;4231102;27;5654;-71
2023/01/03 19:00:19;;;;;;;;;;;;;;;13.86;64.57;98221.56;4223619;28;5210;-71
2023/01/03 19:02:22;;;;;;;;;;;;;;;13.86;64.43;98222.41;4227926;28;5733;-71
2023/01/03 19:04:25;;;;;;;;;;;;;;;13.87;64.26;98215.25;4233132;28;5741;-71
2023/01/03 19:06:32;;;;;;;;;;;;;;;13.87;64.57;98221.41;4224871;28;5650;-71
2023/01/03 19:08:35;;;;;;;;;;;;;;;13.88;64.35;98220.38;4233265;27;5650;-70
2023/01/03 19:10:38;;;;;;;;;;;;;;;13.89;64.46;98222.03;4224779;28;5662;-71
2023/01/03 19:12:41;;;;;;;;;;;;;;;13.90;64.38;98218.38;4216555;28;5779;-70
2023/01/03 19:14:44;;;;;;;;;;;;;;;13.89;64.48;98216.72;4231211;28;5733;-70
2023/01/03 19:16:48;;;;;;;;;;;;;;;13.90;64.28;98214.88;4233291;27;6331;-71
2023/01/03 19:18:52;;;;;;;;;;;;;;;13.89;64.36;98223.88;4224754;28;5864;-71
2023/01/03 19:20:54;;;;;;;;;;;;;;;13.88;64.36;98239.00;4233210;27;5625;-71
2023/01/03 19:22:59;;;;;;;;;;;;;;;13.86;64.30;98221.56;4224752;28;5733;-71
2023/01/03 19:25:06;;;;;;;;;;;;;;;13.80;64.37;98228.41;4225064;28;5743;-71
2023/01/03 19:27:16;;;;;;;;;;;;;;;13.78;64.54;98233.09;4222609;28;5861;-71
2023/01/03 19:29:22;;;;;;;;;;;;;;;13.75;64.38;98232.63;4224668;28;5664;-70
2023/01/03 19:31:26;;;;;;;;;;;;;;;13.74;64.51;98231.81;4228407;28;5865;-71
2023/01/03 19:33:29;;;;;;;;;;;;;;;13.73;64.40;98235.47;4232036;28;5662;-71
2023/01/03 19:35:32;;;;;;;;;;;;;;;13.67;64.62;98230.84;4231888;28;5733;-71
2023/01/03 19:37:35;;;;;;;;;;;;;;;13.65;64.57;98238.19;4232523;28;5801;-70
2023/01/03 19:39:39;;;;;;;;;;;;;;;13.64;64.82;98245.31;4232345;28;5658;-70
2023/01/03 19:44:05;;;;;;;;;;;;;;;13.69;64.59;98248.25;4222106;28;5749;-70
2023/01/03 19:46:15;;;;;;;;;;;;;;;13.73;64.42;98251.41;4230911;27;5638;-71
2023/01/03 19:48:19;;;;;;;;;;;;;;;13.77;64.32;98249.22;4222868;27;6036;-70
2023/01/03 19:50:23;;;;;;;;;;;;;;;13.79;64.49;98249.88;4228016;28;5678;-71
2023/01/03 19:52:26;;;;;;;;;;;;;;;13.80;64.48;98252.34;4226878;28;5661;-71
2023/01/03 19:54:29;;;;;;;;;;;;;;;13.78;64.29;98259.66;4220980;27;5111;-71
2023/01/03 19:56:33;;;;;;;;;;;;;;;13.78;64.42;98249.03;4216886;28;7667;-71
2023/01/03 19:58:40;;;;;;;;;;;;;;;13.76;64.48;98250.22;4229575;28;5756;-71
2023/01/03 20:00:43;;;;;;;;;;;;;;;13.75;64.44;98252.06;4226928;28;5822;-71
2023/01/03 20:02:47;;;;;;;;;;;;;;;13.75;64.43;98252.06;4216353;28;5802;-71
2023/01/03 20:04:50;;;;;;;;;;;;;;;13.76;64.13;98258.19;4234468;28;5744;-71
2023/01/03 20:06:52;;;;;;;;;;;;;;;13.76;64.23;98253.72;4227715;27;5646;-71
2023/01/03 20:08:55;;;;;;;;;;;;;;;13.74;64.35;98252.25;4235797;28;5770;-70
2023/01/03 20:10:58;;;;;;;;;;;;;;;13.74;64.16;98255.72;4233135;27;5850;-71